Flight Track Log - Related Links

Times and Time Zones

All times are in EDT time to prevent confusion due to time zone crossing. See the N14UH flight status page for this flight to view local times or setup timezone preferences in your user account.

Time Position Orientation Groundspeed Altitude Reporting Facility
EDT Latitude Longitude Course Direction KTS MPH feet Rate Location/Type
Sun 09:48:36 AM 33.3364 -90.9739 151° Southeast 116 133 2,900  Level Memphis Center
Sun 09:49:36 AM 33.3133 -90.9589 147° Southeast 105 121 3,600 750 Climbing Memphis Center
Sun 09:50:36 AM 33.2906 -90.9411 153° Southeast 99 114 4,400 750 Climbing Memphis Center
Sun 09:51:36 AM 33.2656 -90.9261 145° Southeast 93 107 5,100 300 Climbing Memphis Center
Sun 09:52:36 AM 33.2386 -90.9036 146° Southeast 104 120 5,000 -50 Descending Memphis Center
Sun 09:53:36 AM 33.2072 -90.8786 150° Southeast 120 138 5,000  Level Memphis Center
Sun 09:54:36 AM 33.1783 -90.8586 144° Southeast 126 145 5,000  Level Memphis Center
Sun 09:55:36 AM 33.1492 -90.8336 149° Southeast 126 145 5,000  Level Memphis Center
Sun 09:56:36 AM 33.1178 -90.8111 150° Southeast 126 145 5,000 50 Level Memphis Center
Sun 09:57:36 AM 33.0886 -90.7911 144° Southeast 121 139 5,100  Climbing Memphis Center
Sun 09:58:36 AM 33.0594 -90.7661 147° Southeast 121 139 5,000 -50 Descending Memphis Center
Sun 09:59:36 AM 33.0303 -90.7439 147° Southeast 121 139 5,000  Level Memphis Center
Sun 10:00:36 AM 33.0014 -90.7214 150° Southeast 121 139 5,000  Level Memphis Center
Sun 10:01:36 AM 32.9722 -90.7014 146° Southeast 126 145 5,000  Level Memphis Center
Sun 10:02:36 AM 32.9450 -90.6792 149° Southeast 126 145 5,000  Level Memphis Center
Sun 10:03:36 AM 32.9136 -90.6567 147° Southeast 126 145 5,000  Level Memphis Center
Sun 10:04:36 AM 32.8844 -90.6344 144° Southeast 126 145 5,000  Level Memphis Center
Sun 10:05:36 AM 32.8553 -90.6094 151° Southeast 126 145 5,000  Level Memphis Center
Sun 10:06:36 AM 32.8219 -90.5872 147° Southeast 126 145 5,000 -50 Level Memphis Center
Sun 10:07:36 AM 32.7928 -90.5650 146° Southeast 126 145 4,900 -250 Descending Memphis Center
Sun 10:08:36 AM 32.7617 -90.5400 145° Southeast 126 145 4,500 -400 Descending Memphis Center
Sun 10:09:36 AM 32.7325 -90.5153 148° Southeast 126 145 4,100 -400 Descending Memphis Center
Sun 10:10:36 AM 32.7031 -90.4931 144° Southeast 126 145 3,700 -450 Descending Memphis Center
Sun 10:11:36 AM 32.6739 -90.4683 147° Southeast 126 145 3,200 -450 Descending Memphis Center
Sun 10:12:36 AM 32.6447 -90.4461 146° Southeast 121 139 2,800 -400 Descending Memphis Center
Sun 10:13:36 AM 32.6133 -90.4214 144° Southeast 121 139 2,400 -400 Descending Memphis Center
Sun 10:14:36 AM 32.5842 -90.3967 140° Southeast 121 139 2,000 -150 Descending Memphis Center
Sun 10:15:36 AM 32.5550 -90.3672 133° Southeast 126 145 2,100 50 Climbing Memphis Center
Sun 10:16:36 AM 32.5319 -90.3375 138° Southeast 126 145 2,100 -50 Level Memphis Center
Sun 10:17:36 AM 32.5069 -90.3106 138° Southeast 126 145 2,000 -100 Descending Memphis Center

Login

Don't have an account? Register now (free) for customized features, flight alerts, and more!